Flight Track Log - Related Links

Times and Time Zones

All times are in EDT time to prevent confusion due to time zone crossing. See the CTL312 flight status page for this flight to view local times or setup timezone preferences in your user account.

Time Position Orientation Groundspeed Altitude Reporting Facility
EDT Latitude Longitude Course Direction KTS MPH feet Rate Location/Type
Mon 06:41:05 PM 41.5314 -81.6814 338° Northwest 110 127 1,200  Level Cleveland Center
Mon 06:41:35 PM 41.5481 -81.6903 338° Northwest 123 142 1,700 527 Climbing Cleveland Center
Mon 06:42:36 PM 41.5856 -81.7103 338° Northwest 160 184 2,000 744 Climbing Cleveland Center
Mon 06:43:36 PM 41.6247 -81.7303 339° North 145 167 3,200 1,140 Climbing Cleveland Center
Mon 06:44:37 PM 41.6433 -81.7697 302° West 129 148 4,300 984 Climbing Cleveland Center
Mon 06:45:38 PM 41.6386 -81.8167 262° West 124 143 5,200 803 Climbing Cleveland Center
Mon 06:46:44 PM 41.6256 -81.8664 251° West 139 160 6,000 378 Climbing Cleveland Center
Mon 06:47:45 PM 41.5917 -81.9075 222° Southwest 167 192 6,000 -52 Level Cleveland Center
Mon 06:48:40 PM 41.5600 -81.9428 220° Southwest 165 190 5,900  Descending Cleveland Center
Mon 06:49:34 PM 41.5303 -81.9867 228° Southwest 166 191 6,000 52 Climbing Cleveland Center
Mon 06:50:35 PM 41.4944 -82.0247 219° Southwest 164 189 6,000  Level Cleveland Center
Mon 06:51:41 PM 41.4603 -82.0711 226° Southwest 164 189 6,000  Level Cleveland Center
Mon 06:52:42 PM 41.4244 -82.1117 220° Southwest 164 189 6,000  Level Cleveland Center
Mon 06:53:43 PM 41.3906 -82.1581 226° Southwest 165 190 6,000  Level Cleveland Center
Mon 06:54:43 PM 41.3586 -82.1986 224° Southwest 164 189 6,000  Level Cleveland Center
Mon 06:55:44 PM 41.3289 -82.2422 228° Southwest 162 186 6,000  Level Cleveland Center
Mon 06:57:00 PM 41.2829 -82.2874 216° Southwest  Level FlightAware Approximate
Mon 07:04:00 PM 41.0317 -82.5424 219° Southwest  Level FlightAware Approximate
Mon 07:05:00 PM 40.9967 -82.5803 219° Southwest  Level FlightAware Approximate
Mon 07:06:00 PM 40.9618 -82.6182 219° Southwest  Level FlightAware Approximate
Mon 07:07:00 PM 40.9269 -82.6560 219° Southwest  Level FlightAware Approximate
Mon 07:08:00 PM 40.8919 -82.6937 219° Southwest  Level FlightAware Approximate
Mon 07:09:00 PM 40.8570 -82.7314 219° Southwest  Level FlightAware Approximate
Mon 07:10:00 PM 40.8220 -82.7691 219° Southwest  Level FlightAware Approximate
Mon 07:11:00 PM 40.7870 -82.8068 219° Southwest  Level FlightAware Approximate
Mon 07:11:07 PM 40.8167 -82.8889 219° Southwest 167 192 6,000  Level Indianapolis Center
Mon 07:12:00 PM 40.7520 -82.8444 219° Southwest  Level FlightAware Approximate
Mon 07:12:09 PM 40.7817 -82.9303 222° Southwest 168 193 6,000  Level Indianapolis Center
Mon 07:13:00 PM 40.7170 -82.8819 219° Southwest  Level FlightAware Approximate
Mon 07:13:11 PM 40.7464 -82.9725 222° Southwest 169 194 6,000  Level Indianapolis Center
Mon 07:14:00 PM 40.6820 -82.9195 219° Southwest  Level FlightAware Approximate
Mon 07:14:12 PM 40.7100 -83.0144 221° Southwest 171 197 6,000  Level Indianapolis Center
Mon 07:15:00 PM 40.6469 -82.9570 219° Southwest  Level FlightAware Approximate
Mon 07:15:14 PM 40.6681 -83.0608 220° Southwest 167 192 6,000  Level Indianapolis Center
Mon 07:16:00 PM 40.6119 -82.9944 219° Southwest  Level FlightAware Approximate
Mon 07:16:16 PM 40.6311 -83.1011 220° Southwest 168 193 6,000  Level Indianapolis Center
Mon 07:17:18 PM 40.5950 -83.1403 219° Southwest 169 194 6,000  Level Indianapolis Center
Mon 07:18:19 PM 40.5600 -83.1828 223° Southwest 167 192 6,000  Level Indianapolis Center
Mon 07:19:21 PM 40.5244 -83.2236 221° Southwest 168 193 6,000  Level Indianapolis Center
Mon 07:20:23 PM 40.4894 -83.2656 222° Southwest 169 194 6,000  Level Indianapolis Center
Mon 07:21:00 PM 40.4617 -83.2944 218° Southwest 167 192 6,000  Level Indianapolis Center
Mon 07:21:25 PM 40.4533 -83.3033 219° Southwest 166 191 6,000  Level Indianapolis Center
Mon 07:22:01 PM 40.4275 -83.3342 222° Southwest 167 192 6,000  Level Indianapolis Center
Mon 07:22:26 PM 40.4175 -83.3439 217° Southwest 168 193 6,000  Level Indianapolis Center
Mon 07:23:02 PM 40.3911 -83.3764 223° Southwest 169 194 6,000  Level Indianapolis Center
Mon 07:23:28 PM 40.3822 -83.3844 215° Southwest 168 193 6,000  Level Indianapolis Center
Mon 07:23:56 PM 40.3592 -83.4108 221° Southwest 167 192 6,000  Level Indianapolis Center
Mon 07:24:30 PM 40.3458 -83.4236 216° Southwest 168 193 6,000  Level Indianapolis Center
Mon 07:25:03 PM 40.3206 -83.4553 224° Southwest 166 191 6,000  Level Indianapolis Center
Mon 07:25:31 PM 40.3042 -83.4711 216° Southwest 168 193 6,000  Level Indianapolis Center
Mon 07:26:04 PM 40.2842 -83.4944 222° Southwest 167 192 6,000  Level Indianapolis Center
Mon 07:26:33 PM 40.2694 -83.5117 222° Southwest 167 192 6,000  Level Indianapolis Center
Mon 07:27:35 PM 40.2342 -83.5511 220° Southwest 167 192 6,000 44 Level Indianapolis Center
Mon 07:28:48 PM 40.1903 -83.6058 224° Southwest 168 193 6,100 45 Climbing Indianapolis Center
Mon 07:29:49 PM 40.1556 -83.6481 223° Southwest 170 196 6,100  Level Indianapolis Center
Mon 07:30:50 PM 40.1192 -83.6872 219° Southwest 168 193 6,100 -53 Level Indianapolis Center
Mon 07:31:42 PM 40.0925 -83.7136 217° Southwest 170 196 6,000 -53 Descending Indianapolis Center
Mon 07:32:43 PM 40.0561 -83.7522 219° Southwest 169 194 6,000  Level Indianapolis Center
Mon 07:33:45 PM 40.0139 -83.7994 221° Southwest 170 196 6,000 -48 Level Indianapolis Center
Mon 07:34:47 PM 39.9789 -83.8394 221° Southwest 168 193 5,900 49 Descending Indianapolis Center
Mon 07:35:48 PM 39.9414 -83.8797 219° Southwest 167 192 6,100 99 Climbing Indianapolis Center
Mon 07:36:48 PM 39.9047 -83.9214 221° Southwest 168 193 6,100 -48 Level Indianapolis Center
Mon 07:37:52 PM 39.8719 -83.9586 221° Southwest 167 192 6,000  Descending Indianapolis Center
Mon 07:38:07 PM 39.8586 -83.9753 224° Southwest 168 193 6,100 103 Climbing Indianapolis Center
Mon 07:38:50 PM 39.8333 -84.0047 222° Southwest 169 194 6,100  Level Indianapolis Center
Mon 07:39:51 PM 39.7989 -84.0436 221° Southwest 171 197 6,100  Level Indianapolis Center
Mon 07:40:52 PM 39.7625 -84.0822 219° Southwest 167 192 6,100  Level Indianapolis Center
Mon 07:41:47 PM 39.7303 -84.1189 221° Southwest 168 193 6,100  Level Indianapolis Center
Mon 07:42:53 PM 39.6892 -84.1622 219° Southwest 168 193 6,100 -267 Level Indianapolis Center
Mon 07:44:02 PM 39.6517 -84.2086 224° Southwest 170 196 5,500 -595 Descending Indianapolis Center
Mon 07:45:04 PM 39.6131 -84.2542 222° Southwest 178 205 4,800 -677 Descending Indianapolis Center
Mon 07:46:06 PM 39.5736 -84.2992 221° Southwest 184 212 4,100 -387 Descending Indianapolis Center
Mon 07:47:08 PM 39.5350 -84.3406 220° Southwest 182 209 4,000 -488 Descending Indianapolis Center
Mon 07:48:09 PM 39.4975 -84.3794 219° Southwest 175 201 3,100 -732 Descending Indianapolis Center
Mon 07:49:11 PM 39.4583 -84.4164 216° Southwest 174 200 2,500 -290 Descending Indianapolis Center
Mon 07:50:13 PM 39.4133 -84.4542 213° Southwest 173 199 2,500  Level Indianapolis Center

Login

Don't have an account? Register now (free) for customized features, flight alerts, and more!